Fondren, Texas
Current Conditions -  °F | °C
As of 4:50 PM on Tuesday 25 Nov 2014 (Local Time) from KEFD Reporting Station
Clear Clear  
Wind Chill: 63°   Ceiling: Unl
Heat Index: 63°   Visibility: 10mi
Dew Point: 28°   Wind: 3mph
Humidity: 27%   Direction: 290°WNW
Pressure: 30.24"   Gusts: NA
Location:  29.5384°N, 95.1252°W
Report Text: KEFD 252250Z 29003KT 10SM CLR 17/M02 A3024
Loading
Personal Weather Stations






























Interactive Weather Map New forecast layout! Learn more

10-Day Weather Forecast

Advertisements
Track Severe Weather on mobile